Airfield :
LOGIN :

Register | Disclaimer

   EN    FR    IT 

 










Legend :    VFR   Marginal VFR   IFR   Intensive IFR   Very Intensive IFR
Visi :
Ceiling :
>= 8 km
>= 3000ft
5 to 8 km
1000 to 3000 ft
1500m to 5 km
500 to 1000 ft
800 to 1500m
200 to 500 ft
< 800m
< 200 ft
Symbols :   Thunderstorms  Fog  Heavy snow  Heavy precipitations  Wind > 20 kt
SIGMETs :     Misc.  Thunderstorms  Icing  Turbulence  Mountain Waves  Volcanic Ashes






- Airport Elevation : 27 ft
- IATA code : PMI


LEPA - Palma de Mallorca

CURRENT METAR :
  • 180730Z 18004KT 150V210 9999 FEW022 SCT038 11/08 Q1019 NOSIG

EXPIRED METARs :
  • 180700Z 05007KT 9999 -RA FEW018 SCT038 08/07 Q1019 NOSIG
  • 180630Z 18006KT 150V210 9999 FEW015 SCT034 08/07 Q1019 NOSIG
  • 180600Z 02003KT 330V050 9999 -RA FEW015 SCT034 05/04 Q1019 NOSIG
  • 180530Z VRB02KT 9999 -RA SCT015 SCT028 03/03 Q1018 NOSIG
  • 180500Z 05003KT 9999 SCT028 03/02 Q1018 NOSIG

TAF AMD TAF LEPA
Valid from the 18 at 07:00 until the 19 at 06:00 UTC


180721Z 1807/1906 VRB04KT 9999 FEW030 TX16/1812Z TN04/1807Z
PROB40
TEMPO 1807/1815 3000 SHRA FEW030TCU SCT040
BECMG 1810/1812 22010KT
PROB30
TEMPO 1815/1818 3000 SHRA FEW030TCU SCT040
BECMG 1818/1820 VRB04KT



MET'MAP, your aeronautical weather chart ! - Copyright ORBIFLY December 2007 - Disclaimer

ORBIFLY MET'MAP TEAM :

Programming & Development : Alexandra Zaïnal
Concept & original design : Baudouin d'Aumeries
Assistance for programming : Marc-Olivier Méhu
Technical & hardware support : Manuel Goepfert

Contact : metmap@orbifly.com




SOURCES & CREDITS :

   NOAA